createdAt,value
2022-11-02T00:02:05.284Z,14.39
2022-11-02T00:04:34.057Z,14.37
2022-11-02T00:07:01.450Z,14.32
2022-11-02T00:09:28.884Z,14.31
2022-11-02T00:11:56.553Z,14.17
2022-11-02T00:14:23.941Z,14.18
2022-11-02T00:16:51.685Z,14.34
2022-11-02T00:19:19.231Z,14.15
2022-11-02T00:21:48.054Z,14.08
2022-11-02T00:24:15.941Z,14.18
2022-11-02T00:26:43.345Z,14.12
2022-11-02T00:29:10.810Z,13.94
2022-11-02T00:31:38.174Z,14.07
2022-11-02T00:34:05.555Z,14.08
2022-11-02T00:36:32.985Z,13.99
2022-11-02T00:39:01.699Z,14.10
2022-11-02T00:41:29.185Z,13.98
2022-11-02T00:43:56.563Z,13.97
2022-11-02T00:46:24.007Z,13.99
2022-11-02T00:48:51.969Z,13.93
2022-11-02T00:51:19.342Z,13.99
2022-11-02T00:53:46.734Z,13.90
2022-11-02T00:56:15.453Z,13.82
2022-11-02T00:58:42.843Z,13.78
2022-11-02T01:01:10.416Z,13.90
2022-11-02T01:03:38.089Z,13.87
2022-11-02T01:06:09.853Z,13.85
2022-11-02T01:08:37.231Z,13.75
2022-11-02T01:11:12.508Z,13.77
2022-11-02T01:13:41.231Z,13.70
2022-11-02T01:16:09.889Z,13.89
2022-11-02T01:18:37.557Z,13.81
2022-11-02T01:21:05.453Z,13.37
2022-11-02T01:23:34.052Z,13.72
2022-11-02T01:26:04.478Z,13.24
2022-11-02T01:28:32.205Z,13.10
2022-11-02T01:31:01.125Z,13.16
2022-11-02T01:33:28.930Z,12.96
2022-11-02T01:35:57.350Z,13.71
2022-11-02T01:38:25.384Z,12.97
2022-11-02T01:40:52.763Z,13.09
2022-11-02T01:43:22.258Z,13.30
2022-11-02T01:45:52.722Z,13.44
2022-11-02T01:48:27.500Z,13.61
2022-11-02T01:50:55.059Z,13.60
2022-11-02T01:53:22.469Z,13.51
2022-11-02T01:55:51.902Z,13.57
2022-11-02T01:58:19.375Z,13.34
2022-11-02T02:00:47.098Z,13.47
2022-11-02T02:03:18.179Z,13.37
2022-11-02T02:05:50.477Z,13.53
2022-11-02T02:08:20.838Z,13.50
2022-11-02T02:10:48.223Z,13.33
2022-11-02T02:13:17.007Z,12.64
2022-11-02T02:15:57.085Z,13.20
2022-11-02T02:18:31.213Z,13.15
2022-11-02T02:21:22.843Z,12.96
2022-11-02T02:24:45.368Z,12.51
2022-11-02T02:27:17.073Z,12.85
2022-11-02T02:29:53.536Z,12.52
2022-11-02T02:32:28.915Z,12.62
2022-11-02T02:35:01.293Z,12.74
2022-11-02T02:37:36.719Z,12.98
2022-11-02T02:40:09.769Z,12.55
2022-11-02T02:42:41.946Z,12.94
2022-11-02T02:45:17.226Z,13.03
2022-11-02T02:47:49.327Z,13.02
2022-11-02T02:50:21.658Z,12.39
2022-11-02T02:52:52.611Z,12.76
2022-11-02T02:55:26.264Z,12.45
2022-11-02T02:57:55.502Z,12.56
2022-11-02T03:00:24.222Z,12.58
2022-11-02T03:03:01.656Z,12.61
2022-11-02T03:05:33.777Z,12.77
2022-11-02T03:08:05.065Z,12.66
2022-11-02T03:10:42.287Z,12.16
2022-11-02T03:13:17.666Z,12.47
2022-11-02T03:15:52.845Z,12.36
2022-11-02T03:18:27.500Z,12.72
2022-11-02T03:21:03.877Z,12.67
2022-11-02T03:23:36.222Z,12.48
2022-11-02T03:26:08.721Z,12.44
2022-11-02T03:28:46.680Z,12.25
2022-11-02T03:31:26.709Z,12.05
2022-11-02T03:33:59.383Z,12.14
2022-11-02T03:36:34.016Z,11.73
2022-11-02T03:39:07.731Z,12.30
2022-11-02T03:41:37.663Z,12.60
2022-11-02T03:44:08.450Z,12.75
2022-11-02T03:46:39.935Z,12.55
2022-11-02T03:49:11.549Z,12.98
2022-11-02T03:51:42.010Z,12.83
2022-11-02T03:54:15.625Z,12.65
2022-11-02T03:56:47.380Z,12.44
2022-11-02T03:59:14.938Z,12.36
2022-11-02T04:01:46.133Z,12.50
2022-11-02T04:04:13.772Z,13.04
2022-11-02T04:06:42.763Z,12.47
2022-11-02T04:09:10.666Z,11.67
2022-11-02T04:11:55.961Z,11.51
2022-11-02T04:14:38.639Z,12.32
2022-11-02T04:17:25.824Z,12.03
2022-11-02T04:19:53.781Z,12.49
2022-11-02T04:22:39.055Z,12.34
2022-11-02T04:25:18.683Z,12.02
2022-11-02T04:27:49.030Z,12.07
2022-11-02T04:30:19.006Z,12.41
2022-11-02T04:33:06.778Z,12.76
2022-11-02T04:35:35.495Z,12.52
2022-11-02T04:38:21.459Z,12.89
2022-11-02T04:40:49.369Z,12.87
2022-11-02T04:43:16.738Z,12.11
2022-11-02T04:45:44.115Z,12.36
2022-11-02T04:48:12.834Z,12.74
2022-11-02T04:50:40.230Z,12.85
2022-11-02T04:53:08.166Z,12.93
2022-11-02T04:55:36.010Z,13.25
2022-11-02T04:58:03.700Z,13.03
2022-11-02T05:00:31.420Z,12.59
2022-11-02T05:02:58.891Z,12.93
2022-11-02T05:05:27.641Z,12.99
2022-11-02T05:07:55.034Z,13.12
2022-11-02T05:10:22.426Z,11.93
2022-11-02T05:12:49.876Z,12.77
2022-11-02T05:15:17.414Z,12.87
2022-11-02T05:17:48.695Z,12.96
2022-11-02T05:20:16.345Z,11.58
2022-11-02T05:22:45.447Z,11.94
2022-11-02T05:25:13.647Z,11.74
2022-11-02T05:27:41.027Z,12.20
2022-11-02T05:30:09.331Z,12.18
2022-11-02T05:32:36.698Z,11.29
2022-11-02T05:35:04.658Z,12.01
2022-11-02T05:37:32.070Z,11.39
2022-11-02T05:40:00.844Z,12.16
2022-11-02T05:42:28.319Z,12.62
2022-11-02T05:44:55.710Z,12.87
2022-11-02T05:47:23.142Z,12.64
2022-11-02T05:49:50.526Z,12.68
2022-11-02T05:52:17.957Z,12.11
2022-11-02T05:54:45.329Z,11.99
2022-11-02T05:57:14.008Z,11.96
2022-11-02T05:59:43.813Z,11.81
2022-11-02T06:02:14.075Z,12.04
2022-11-02T06:04:41.653Z,11.81
2022-11-02T06:07:09.020Z,12.36
2022-11-02T06:09:36.627Z,11.43
2022-11-02T06:12:04.189Z,11.61
2022-11-02T06:14:32.916Z,11.60
2022-11-02T06:17:00.300Z,11.59
2022-11-02T06:19:27.663Z,12.04
2022-11-02T06:21:55.052Z,12.62
2022-11-02T06:24:22.425Z,12.30
2022-11-02T06:26:49.851Z,12.11
2022-11-02T06:29:17.213Z,12.48
2022-11-02T06:31:45.940Z,12.52
2022-11-02T06:34:13.370Z,12.05
2022-11-02T06:36:40.873Z,12.37
2022-11-02T06:39:08.267Z,11.82
2022-11-02T06:41:35.683Z,11.81
2022-11-02T06:44:03.127Z,11.23
2022-11-02T06:46:30.509Z,12.12
2022-11-02T06:48:59.837Z,12.89
2022-11-02T06:51:27.220Z,12.66
2022-11-02T06:53:54.594Z,12.01
2022-11-02T06:56:22.011Z,12.13
2022-11-02T06:58:49.404Z,12.51
2022-11-02T07:01:16.914Z,12.20
2022-11-02T07:03:44.347Z,12.21
2022-11-02T07:06:14.485Z,12.14
2022-11-02T07:08:42.423Z,12.98
2022-11-02T07:11:14.269Z,12.80
2022-11-02T07:13:41.668Z,12.58
2022-11-02T07:16:09.073Z,11.90
2022-11-02T07:18:36.463Z,11.82
2022-11-02T07:21:03.942Z,12.45
2022-11-02T07:23:32.977Z,12.52
2022-11-02T07:26:02.230Z,12.53
2022-11-02T07:28:29.673Z,12.73
2022-11-02T07:30:57.277Z,12.94
2022-11-02T07:33:24.715Z,12.98
2022-11-02T07:35:52.116Z,13.37
2022-11-02T07:38:19.555Z,13.42
2022-11-02T07:40:49.949Z,12.94
2022-11-02T07:43:17.511Z,13.41
2022-11-02T07:45:44.913Z,13.41
2022-11-02T07:48:12.369Z,13.62
2022-11-02T07:50:39.833Z,13.03
2022-11-02T07:53:07.522Z,13.37
2022-11-02T07:55:35.366Z,14.01
2022-11-02T07:58:06.018Z,14.12
2022-11-02T08:00:35.366Z,13.59
2022-11-02T08:03:04.860Z,13.90
2022-11-02T08:05:35.705Z,14.44
2022-11-02T08:08:05.535Z,13.96
2022-11-02T08:10:38.929Z,14.36
2022-11-02T08:13:09.396Z,14.72
2022-11-02T08:15:37.214Z,14.32
2022-11-02T08:18:06.446Z,14.91
2022-11-02T08:20:36.213Z,14.43
2022-11-02T08:23:04.378Z,14.69
2022-11-02T08:25:32.202Z,15.14
2022-11-02T08:28:00.702Z,15.32
2022-11-02T08:30:31.520Z,15.27
2022-11-02T08:33:03.741Z,15.42
2022-11-02T08:35:31.189Z,15.17
2022-11-02T08:37:59.937Z,15.21
2022-11-02T08:40:28.069Z,15.42
2022-11-02T08:42:59.294Z,15.40
2022-11-02T08:45:26.977Z,15.62
2022-11-02T08:47:56.109Z,15.65
2022-11-02T08:50:24.378Z,16.03
2022-11-02T08:52:51.966Z,16.04
2022-11-02T08:55:19.461Z,15.71
2022-11-02T08:57:47.361Z,15.45
2022-11-02T09:00:15.805Z,15.75
2022-11-02T09:02:44.068Z,15.27
2022-11-02T09:05:12.863Z,15.82
2022-11-02T09:07:40.286Z,15.71
2022-11-02T09:10:08.681Z,15.16
2022-11-02T09:12:36.080Z,15.29
2022-11-02T09:15:03.495Z,14.28
2022-11-02T09:17:30.902Z,14.86
2022-11-02T09:19:58.276Z,14.73
2022-11-02T09:22:26.976Z,15.16
2022-11-02T09:24:54.361Z,14.84
2022-11-02T09:27:21.732Z,15.44
2022-11-02T09:29:49.116Z,15.50
2022-11-02T09:32:16.566Z,15.71
2022-11-02T09:34:44.074Z,15.65
2022-11-02T09:37:11.499Z,14.81
2022-11-02T09:39:40.636Z,14.93
2022-11-02T09:42:16.769Z,14.72
2022-11-02T09:44:50.439Z,14.65
2022-11-02T09:48:02.810Z,15.26
2022-11-02T09:50:07.212Z,15.46
2022-11-02T09:52:39.138Z,15.59
2022-11-02T09:55:16.356Z,15.51
2022-11-02T09:57:47.140Z,15.70
2022-11-02T10:00:15.507Z,15.43
2022-11-02T10:02:52.066Z,15.68
2022-11-02T10:05:33.148Z,15.59
2022-11-02T10:08:23.834Z,16.08
2022-11-02T10:11:08.038Z,16.03
2022-11-02T10:13:41.960Z,15.55
2022-11-02T10:16:15.995Z,15.49
2022-11-02T10:18:44.476Z,15.45
2022-11-02T10:21:16.610Z,15.66
2022-11-02T10:23:50.939Z,15.84
2022-11-02T10:26:24.151Z,15.35
2022-11-02T10:28:59.060Z,15.51
2022-11-02T10:31:30.127Z,15.70
2022-11-02T10:34:00.578Z,15.64
2022-11-02T10:36:40.716Z,15.77
2022-11-02T10:39:21.266Z,16.04
2022-11-02T10:42:18.882Z,16.31
2022-11-02T10:45:02.358Z,15.75
2022-11-02T10:47:34.530Z,15.99
2022-11-02T10:50:15.427Z,16.36
2022-11-02T10:52:45.194Z,16.05
2022-11-02T10:55:21.846Z,16.29
2022-11-02T10:57:52.856Z,16.05
2022-11-02T11:00:26.321Z,16.11
2022-11-02T11:03:07.638Z,16.69
2022-11-02T11:05:42.244Z,16.73
2022-11-02T11:08:30.732Z,17.00
2022-11-02T11:11:15.726Z,17.14
2022-11-02T11:16:38.837Z,17.14
2022-11-02T11:22:03.745Z,16.61
2022-11-02T11:24:33.140Z,16.10
2022-11-02T11:27:02.978Z,15.57
2022-11-02T11:29:34.010Z,15.96
2022-11-02T11:32:03.505Z,16.96
2022-11-02T11:34:33.925Z,17.02
2022-11-02T11:37:10.712Z,16.30
2022-11-02T11:39:41.147Z,16.52
2022-11-02T11:42:17.812Z,16.78
2022-11-02T11:44:54.000Z,16.58
2022-11-02T11:47:27.553Z,15.73
2022-11-02T11:50:13.208Z,16.46
2022-11-02T11:52:44.402Z,16.93
2022-11-02T11:55:24.205Z,17.11
2022-11-02T11:58:13.889Z,16.72
2022-11-02T12:00:43.087Z,16.40
2022-11-02T12:03:12.117Z,16.28
2022-11-02T12:05:48.861Z,16.91
2022-11-02T12:08:30.217Z,16.92
2022-11-02T12:11:18.740Z,16.19
2022-11-02T12:14:07.648Z,16.22
2022-11-02T12:16:53.188Z,16.30
2022-11-02T12:19:33.845Z,16.75
2022-11-02T12:22:10.477Z,16.40
2022-11-02T12:24:47.761Z,16.88
2022-11-02T12:27:32.170Z,16.95
2022-11-02T12:30:17.862Z,17.00
2022-11-02T12:33:03.804Z,16.70
2022-11-02T12:35:56.872Z,16.52
2022-11-02T12:38:53.276Z,16.64
2022-11-02T12:41:36.564Z,16.34
2022-11-02T12:44:15.242Z,16.59
2022-11-02T12:46:49.210Z,16.80
2022-11-02T12:49:36.148Z,16.73
2022-11-02T12:52:17.584Z,16.42
2022-11-02T12:54:48.424Z,16.40
2022-11-02T12:57:19.641Z,16.04
2022-11-02T12:59:50.117Z,16.30
2022-11-02T13:02:20.745Z,15.99
2022-11-02T13:04:54.046Z,16.19
2022-11-02T13:07:27.752Z,16.35
2022-11-02T13:10:02.647Z,16.32
2022-11-02T13:12:33.151Z,16.02
2022-11-02T13:15:02.311Z,16.45
2022-11-02T13:17:37.986Z,15.98
2022-11-02T13:20:15.921Z,17.11
2022-11-02T13:22:45.174Z,17.80
2022-11-02T13:25:18.411Z,17.62
2022-11-02T13:27:51.668Z,16.97
2022-11-02T13:30:19.990Z,16.79
2022-11-02T13:32:53.394Z,16.82
2022-11-02T13:35:28.181Z,16.77
2022-11-02T13:38:01.935Z,16.27
2022-11-02T13:40:35.689Z,17.12
2022-11-02T13:43:53.426Z,16.65
2022-11-02T13:46:40.975Z,16.14
2022-11-02T13:49:15.593Z,16.43
2022-11-02T13:51:48.138Z,16.51
2022-11-02T13:54:20.347Z,17.42
2022-11-02T13:56:52.412Z,17.85
2022-11-02T13:59:23.286Z,16.69
2022-11-02T14:01:54.490Z,17.62
2022-11-02T14:04:23.327Z,17.84
2022-11-02T14:06:56.753Z,16.81
2022-11-02T14:09:37.254Z,16.83
2022-11-02T14:12:28.260Z,16.60
2022-11-02T14:15:49.758Z,16.43
2022-11-02T14:18:31.840Z,17.08
2022-11-02T14:20:59.846Z,17.40
2022-11-02T14:23:43.640Z,16.71
2022-11-02T14:26:34.145Z,16.53
2022-11-02T14:29:25.601Z,16.81
2022-11-02T14:32:03.408Z,16.61
2022-11-02T14:34:50.728Z,16.23
2022-11-02T14:37:37.683Z,16.13
2022-11-02T14:40:19.849Z,16.30
2022-11-02T14:43:12.595Z,16.23
2022-11-02T14:45:57.989Z,15.72
2022-11-02T14:48:31.428Z,16.21
2022-11-02T14:51:03.847Z,16.27
2022-11-02T14:53:34.248Z,16.14
2022-11-02T14:56:03.584Z,16.16
2022-11-02T14:58:35.012Z,15.77
2022-11-02T15:01:04.668Z,15.86
2022-11-02T15:03:38.848Z,16.05
2022-11-02T15:06:15.130Z,16.59
2022-11-02T15:08:51.577Z,15.87
2022-11-02T15:11:46.270Z,16.25
2022-11-02T15:14:33.565Z,16.33
2022-11-02T15:17:01.027Z,16.40
2022-11-02T15:19:37.322Z,15.91
2022-11-02T15:22:36.636Z,16.05
2022-11-02T15:25:11.636Z,15.96
2022-11-02T15:27:43.400Z,15.81
2022-11-02T15:30:15.278Z,15.83
2022-11-02T15:32:46.675Z,15.87
2022-11-02T15:35:21.130Z,16.07
2022-11-02T15:38:16.093Z,16.00
2022-11-02T15:40:48.667Z,16.07
2022-11-02T15:43:39.975Z,16.12
2022-11-02T15:46:18.298Z,15.72
2022-11-02T15:48:54.404Z,16.07
2022-11-02T15:51:31.169Z,16.18
2022-11-02T15:54:11.167Z,14.94
2022-11-02T15:56:50.145Z,15.35
2022-11-02T15:59:51.747Z,15.44
2022-11-02T16:02:25.350Z,15.64
2022-11-02T16:04:55.039Z,16.15
2022-11-02T16:07:29.149Z,15.85
2022-11-02T16:10:14.146Z,16.10
2022-11-02T16:12:41.557Z,15.72
2022-11-02T16:15:13.724Z,15.97
2022-11-02T16:17:42.139Z,15.60
2022-11-02T16:20:12.785Z,15.46
2022-11-02T16:22:41.176Z,15.90
2022-11-02T16:25:12.625Z,15.83
2022-11-02T16:27:40.672Z,15.73
2022-11-02T16:30:19.019Z,15.43
2022-11-02T16:32:48.238Z,15.50
2022-11-02T16:35:16.877Z,15.83
2022-11-02T16:37:45.269Z,15.41
2022-11-02T16:40:18.089Z,15.73
2022-11-02T16:42:47.068Z,15.71
2022-11-02T16:48:25.516Z,15.45
2022-11-02T16:51:01.994Z,15.36
2022-11-02T16:53:31.370Z,14.85
2022-11-02T16:56:01.370Z,15.43
2022-11-02T16:58:29.638Z,15.68
2022-11-02T17:00:59.484Z,15.30
2022-11-02T17:03:32.391Z,15.51
2022-11-02T17:06:02.750Z,15.07
2022-11-02T17:08:32.763Z,15.42
2022-11-02T17:11:35.312Z,14.95
2022-11-02T17:14:03.471Z,15.09
2022-11-02T17:16:34.202Z,15.19
2022-11-02T17:19:05.233Z,15.13
2022-11-02T17:21:32.633Z,15.07
2022-11-02T17:24:00.643Z,14.82
2022-11-02T17:26:37.518Z,14.90
2022-11-02T17:29:34.389Z,14.43
2022-11-02T17:32:01.957Z,14.78
2022-11-02T17:34:31.647Z,14.97
2022-11-02T17:36:59.116Z,14.77
2022-11-02T17:39:26.613Z,14.51
2022-11-02T17:42:13.376Z,14.56
2022-11-02T17:44:41.506Z,14.72
2022-11-02T17:47:13.048Z,14.40
2022-11-02T17:49:41.783Z,15.43
2022-11-02T17:52:13.759Z,15.60
2022-11-02T17:54:41.326Z,15.72
2022-11-02T17:57:13.860Z,15.49
2022-11-02T17:59:41.460Z,15.65
2022-11-02T18:02:12.941Z,16.58
2022-11-02T18:07:14.399Z,16.00
2022-11-02T18:09:41.952Z,15.58
2022-11-02T18:12:13.465Z,16.08
2022-11-02T18:14:41.105Z,15.84
2022-11-02T18:17:09.286Z,15.68
2022-11-02T18:19:36.677Z,15.73
2022-11-02T18:22:05.480Z,15.92
2022-11-02T18:24:32.908Z,15.80
2022-11-02T18:27:00.319Z,15.24
2022-11-02T18:29:27.700Z,15.17
2022-11-02T18:31:55.217Z,14.92
2022-11-02T18:34:22.845Z,15.12
2022-11-02T18:36:50.314Z,14.80
2022-11-02T18:39:19.230Z,14.67
2022-11-02T18:41:47.829Z,14.89
2022-11-02T18:44:15.832Z,15.12
2022-11-02T18:46:43.899Z,14.56
2022-11-02T18:49:11.411Z,14.77
2022-11-02T18:51:42.818Z,14.82
2022-11-02T18:54:10.442Z,14.93
2022-11-02T18:56:39.162Z,14.71
2022-11-02T18:59:06.652Z,14.76
2022-11-02T19:01:34.478Z,14.71
2022-11-02T19:04:02.739Z,14.60
2022-11-02T19:06:49.473Z,14.70
2022-11-02T19:09:21.697Z,14.83
2022-11-02T19:11:53.515Z,14.68
2022-11-02T19:14:22.968Z,14.65
2022-11-02T19:16:50.843Z,14.77
2022-11-02T19:19:18.356Z,14.75
2022-11-02T19:21:45.829Z,14.73
2022-11-02T19:24:13.597Z,14.60
2022-11-02T19:26:41.521Z,14.56
2022-11-02T19:29:10.291Z,14.51
2022-11-02T19:31:37.758Z,14.58
2022-11-02T19:34:06.401Z,14.72
2022-11-02T19:36:34.332Z,14.71
2022-11-02T19:39:03.444Z,14.76
2022-11-02T19:41:31.888Z,14.59
2022-11-02T19:43:59.632Z,14.51
2022-11-02T19:46:28.897Z,14.66
2022-11-02T19:48:57.586Z,14.46
2022-11-02T19:51:27.002Z,14.38
2022-11-02T19:53:56.596Z,14.28
2022-11-02T19:56:24.271Z,14.32
2022-11-02T19:58:52.842Z,14.31
2022-11-02T20:01:21.872Z,14.36
2022-11-02T20:03:51.304Z,14.17
2022-11-02T20:06:20.600Z,14.00
2022-11-02T20:08:50.365Z,14.00
2022-11-02T20:11:19.071Z,13.90
2022-11-02T20:13:47.899Z,13.81
2022-11-02T20:16:17.312Z,13.54
2022-11-02T20:18:46.496Z,13.61
2022-11-02T20:21:17.700Z,13.49
2022-11-02T20:23:46.499Z,13.44
2022-11-02T20:26:16.974Z,13.62
2022-11-02T20:28:47.376Z,13.55
2022-11-02T20:31:16.616Z,13.59
2022-11-02T20:33:44.277Z,13.70
2022-11-02T20:36:12.029Z,13.75
2022-11-02T20:38:41.139Z,13.61
2022-11-02T20:41:10.984Z,13.52
2022-11-02T20:43:40.270Z,13.64
2022-11-02T20:46:35.979Z,13.51
2022-11-02T20:49:01.537Z,13.29
2022-11-02T20:51:37.087Z,13.22
2022-11-02T20:54:07.493Z,13.50
2022-11-02T20:56:35.027Z,13.54
2022-11-02T20:59:02.516Z,13.30
2022-11-02T21:01:30.268Z,13.31
2022-11-02T21:03:57.975Z,13.30
2022-11-02T21:06:25.372Z,13.20
2022-11-02T21:08:53.020Z,13.21
2022-11-02T21:11:39.262Z,13.11
2022-11-02T21:14:06.727Z,13.18
2022-11-02T21:16:34.745Z,13.28
2022-11-02T21:19:07.841Z,13.25
2022-11-02T21:21:35.394Z,13.08
2022-11-02T21:24:02.864Z,12.96
2022-11-02T21:26:31.755Z,12.88
2022-11-02T21:29:02.186Z,12.90
2022-11-02T21:31:29.865Z,12.78
2022-11-02T21:33:57.434Z,12.82
2022-11-02T21:36:24.928Z,12.67
2022-11-02T21:38:52.408Z,12.53
2022-11-02T21:41:22.079Z,12.64
2022-11-02T21:43:52.123Z,12.65
2022-11-02T21:46:20.413Z,12.76
2022-11-02T21:48:48.094Z,12.57
2022-11-02T21:51:17.664Z,12.73
2022-11-02T21:53:46.213Z,12.57
2022-11-02T21:56:15.412Z,12.47
2022-11-02T21:58:44.950Z,12.54
2022-11-02T22:01:35.481Z,12.45
2022-11-02T22:04:03.865Z,12.29
2022-11-02T22:06:32.059Z,12.28
2022-11-02T22:09:00.011Z,12.42
2022-11-02T22:11:28.530Z,12.33
2022-11-02T22:13:57.813Z,12.32
2022-11-02T22:16:28.666Z,12.28
2022-11-02T22:18:58.266Z,12.44
2022-11-02T22:21:27.118Z,12.38
2022-11-02T22:23:55.236Z,12.39
2022-11-02T22:26:24.463Z,12.44
2022-11-02T22:28:52.524Z,12.51
2022-11-02T22:31:22.035Z,12.32
2022-11-02T22:33:53.214Z,12.42
2022-11-02T22:36:22.401Z,12.46
2022-11-02T22:38:53.831Z,12.42
2022-11-02T22:41:24.610Z,12.36
2022-11-02T22:43:54.327Z,12.38
2022-11-02T22:46:22.727Z,12.42
2022-11-02T22:48:54.076Z,12.35
2022-11-02T22:51:23.028Z,12.35
2022-11-02T22:53:51.086Z,12.31
2022-11-02T22:56:20.878Z,12.36
2022-11-02T22:58:49.484Z,12.48
2022-11-02T23:01:19.277Z,12.32
2022-11-02T23:03:47.380Z,12.29
2022-11-02T23:06:17.102Z,12.22
2022-11-02T23:08:46.422Z,12.42
2022-11-02T23:11:24.495Z,12.30
2022-11-02T23:13:56.479Z,11.88
2022-11-02T23:16:26.852Z,12.05
2022-11-02T23:19:14.531Z,12.19
2022-11-02T23:21:44.692Z,12.25
2022-11-02T23:24:30.390Z,12.18
2022-11-02T23:26:58.721Z,12.18
2022-11-02T23:29:44.232Z,12.22
2022-11-02T23:32:27.609Z,12.09
2022-11-02T23:35:14.439Z,12.07
2022-11-02T23:37:46.855Z,11.91
2022-11-02T23:40:18.919Z,11.69
2022-11-02T23:42:46.350Z,11.96
2022-11-02T23:45:13.765Z,11.76
2022-11-02T23:48:01.282Z,12.01
2022-11-02T23:50:48.633Z,11.87
2022-11-02T23:53:36.802Z,11.70
2022-11-02T23:56:23.158Z,11.64
2022-11-02T23:59:06.120Z,11.77
